Elton, Pennsylvania
Current Conditions -  °F | °C
As of 12:54 PM on Friday 19 Dec 2014 (Local Time) from KJST Reporting Station
Overcast Overcast  
Wind Chill: 16°   Ceiling: 900
Heat Index: 25°   Visibility: 8mi
Dew Point: 22°   Wind: 9mph
Humidity: 88%   Direction: 290°WNW
Pressure: 30.08"   Gusts: NA
Location:  40.28°N, 78.8°W
Report Text: KJST 191754Z AUTO 29008KT 8SM BKN009 OVC013 M04/M06 A3008 RMK AO2 SNB1658E07 CIG 007V012 SLP217 P0000 60000 I6001 T10391056 11039 21044 56005
Loading
Personal Weather Stations






























Interactive Weather Map New forecast layout! Learn more

10-Day Weather Forecast

Advertisements
Track Severe Weather on mobile